createdAt,value
2018-05-15T00:01:40.370Z,99654.78
2018-05-15T00:04:07.763Z,99649.66
2018-05-15T00:06:35.246Z,99649.66
2018-05-15T00:09:02.656Z,99651.34
2018-05-15T00:11:30.056Z,99653.52
2018-05-15T00:13:57.452Z,99656.10
2018-05-15T00:16:24.831Z,99658.67
2018-05-15T00:18:52.334Z,99661.56
2018-05-15T00:21:19.714Z,99671.36
2018-05-15T00:23:47.823Z,99666.20
2018-05-15T00:26:15.284Z,99669.88
2018-05-15T00:28:42.672Z,99666.11
2018-05-15T00:31:10.047Z,99665.57
2018-05-15T00:33:37.432Z,99659.63
2018-05-15T00:36:04.808Z,99663.54
2018-05-15T00:38:32.195Z,99665.83
2018-05-15T00:40:59.571Z,99667.92
2018-05-15T00:43:26.957Z,99664.61
2018-05-15T00:45:54.339Z,99662.44
2018-05-15T00:48:21.719Z,99662.02
2018-05-15T00:50:49.110Z,99654.92
2018-05-15T00:53:16.566Z,99666.00
2018-05-15T00:55:44.021Z,99660.25
2018-05-15T00:58:11.403Z,99657.61
2018-05-15T01:00:38.782Z,99658.61
2018-05-15T01:03:06.170Z,99655.93
2018-05-15T01:05:33.557Z,99655.05
2018-05-15T01:08:00.935Z,99652.45
2018-05-15T01:10:28.318Z,99651.19
2018-05-15T01:12:55.725Z,99652.05
2018-05-15T01:15:23.109Z,99655.34
2018-05-15T01:17:50.656Z,99652.36
2018-05-15T01:20:18.135Z,99652.36
2018-05-15T01:22:45.555Z,99651.91
2018-05-15T01:25:12.926Z,99653.22
2018-05-15T01:27:40.352Z,99655.03
2018-05-15T01:30:07.737Z,99657.35
2018-05-15T01:32:35.119Z,99658.69
2018-05-15T01:35:02.526Z,99656.95
2018-05-15T01:37:29.903Z,99657.80
2018-05-15T01:39:57.297Z,99659.58
2018-05-15T01:42:24.684Z,99655.79
2018-05-15T01:44:52.111Z,99659.28
2018-05-15T01:47:19.483Z,99652.80
2018-05-15T01:49:46.873Z,99660.86
2018-05-15T01:52:14.251Z,99658.57
2018-05-15T01:54:41.639Z,99661.14
2018-05-15T01:57:09.187Z,99657.73
2018-05-15T01:59:36.596Z,99654.16
2018-05-15T02:02:04.187Z,99652.14
2018-05-15T02:04:31.587Z,99657.16
2018-05-15T02:06:58.971Z,99657.59
2018-05-15T02:09:26.354Z,99655.84
2018-05-15T02:11:53.751Z,99657.50
2018-05-15T02:14:21.136Z,99658.63
2018-05-15T02:16:49.477Z,99652.91
2018-05-15T02:19:16.871Z,99659.48
2018-05-15T02:21:44.245Z,99656.28
2018-05-15T02:24:11.625Z,99657.91
2018-05-15T02:26:39.012Z,99659.02
2018-05-15T02:29:06.386Z,99665.14
2018-05-15T02:31:33.769Z,99659.83
2018-05-15T02:34:01.145Z,99662.47
2018-05-15T02:36:28.538Z,99659.92
2018-05-15T02:38:55.908Z,99660.33
2018-05-15T02:41:23.292Z,99662.05
2018-05-15T02:43:50.664Z,99658.67
2018-05-15T02:46:18.548Z,99660.13
2018-05-15T02:48:45.939Z,99662.69
2018-05-15T02:51:13.323Z,99664.49
2018-05-15T02:53:40.705Z,99669.61
2018-05-15T02:56:08.075Z,99675.94
2018-05-15T02:58:35.796Z,99677.31
2018-05-15T03:01:03.160Z,99678.11
2018-05-15T03:03:30.540Z,99676.36
2018-05-15T03:05:57.945Z,99680.08
2018-05-15T03:08:25.321Z,99683.63
2018-05-15T03:10:52.703Z,99682.30
2018-05-15T03:13:20.079Z,99678.48
2018-05-15T03:15:47.467Z,99674.28
2018-05-15T03:18:14.841Z,99682.74
2018-05-15T03:20:42.226Z,99684.86
2018-05-15T03:23:09.595Z,99687.00
2018-05-15T03:25:36.976Z,99686.05
2018-05-15T03:28:04.348Z,99677.62
2018-05-15T03:30:31.735Z,99683.24
2018-05-15T03:32:59.116Z,99685.55
2018-05-15T03:35:26.507Z,99691.08
2018-05-15T03:37:53.882Z,99692.20
2018-05-15T03:40:21.329Z,99693.88
2018-05-15T03:42:48.890Z,99696.82
2018-05-15T03:45:16.319Z,99699.01
2018-05-15T03:47:43.705Z,99698.20
2018-05-15T03:50:11.099Z,99705.91
2018-05-15T03:52:38.480Z,99709.72
2018-05-15T03:55:05.864Z,99712.27
2018-05-15T03:57:33.501Z,99718.04
2018-05-15T04:00:00.873Z,99710.03
2018-05-15T04:02:40.011Z,99715.23
2018-05-15T04:05:19.186Z,99717.06
2018-05-15T04:08:11.162Z,99725.53
2018-05-15T04:10:38.547Z,99733.87
2018-05-15T04:13:05.952Z,99733.17
2018-05-15T04:15:33.339Z,99736.88
2018-05-15T04:18:00.715Z,99733.09
2018-05-15T04:20:28.109Z,99732.04
2018-05-15T04:22:55.484Z,99745.06
2018-05-15T04:25:22.867Z,99752.76
2018-05-15T04:27:50.246Z,99752.41
2018-05-15T04:30:17.938Z,99757.47
2018-05-15T04:32:46.056Z,99759.90
2018-05-15T04:35:13.453Z,99755.44
2018-05-15T04:37:40.819Z,99766.41
2018-05-15T04:40:08.208Z,99764.22
2018-05-15T04:42:35.611Z,99763.98
2018-05-15T04:45:02.974Z,99764.70
2018-05-15T04:47:30.357Z,99771.75
2018-05-15T04:49:57.770Z,99777.53
2018-05-15T04:52:25.135Z,99780.19
2018-05-15T04:54:52.515Z,99781.98
2018-05-15T04:57:19.895Z,99776.03
2018-05-15T04:59:47.269Z,99782.44
2018-05-15T05:02:14.653Z,99786.75
2018-05-15T05:04:42.056Z,99781.01
2018-05-15T05:07:09.441Z,99778.47
2018-05-15T05:09:36.820Z,99785.35
2018-05-15T05:12:04.207Z,99796.25
2018-05-15T05:14:31.583Z,99801.20
2018-05-15T05:16:58.967Z,99803.16
2018-05-15T05:19:26.382Z,99803.23
2018-05-15T05:21:53.749Z,99813.66
2018-05-15T05:24:21.230Z,99808.09
2018-05-15T05:26:49.539Z,99815.34
2018-05-15T05:29:16.913Z,99812.14
2018-05-15T05:31:44.296Z,99815.55
2018-05-15T05:34:11.672Z,99815.63
2018-05-15T05:36:39.042Z,99818.57
2018-05-15T05:39:06.446Z,99822.75
2018-05-15T05:41:34.083Z,99823.25
2018-05-15T05:44:01.491Z,99827.25
2018-05-15T05:46:28.878Z,99832.95
2018-05-15T05:48:56.298Z,99835.13
2018-05-15T05:51:23.624Z,99839.12
2018-05-15T05:53:50.995Z,99840.05
2018-05-15T05:56:18.381Z,99843.80
2018-05-15T05:58:45.754Z,99838.61
2018-05-15T06:01:13.142Z,99837.83
2018-05-15T06:03:40.638Z,99838.11
2018-05-15T06:06:08.012Z,99841.20
2018-05-15T06:08:35.386Z,99847.34
2018-05-15T06:11:02.769Z,99847.87
2018-05-15T06:13:30.150Z,99847.97
2018-05-15T06:15:57.520Z,99851.80
2018-05-15T06:18:24.898Z,99852.40
2018-05-15T06:20:52.333Z,99861.91
2018-05-15T06:23:19.706Z,99863.63
2018-05-15T06:25:47.162Z,99869.20
2018-05-15T06:28:14.539Z,99874.44
2018-05-15T06:30:41.932Z,99869.46
2018-05-15T06:33:09.313Z,99873.57
2018-05-15T06:35:36.691Z,99872.72
2018-05-15T06:38:04.077Z,99876.55
2018-05-15T06:40:31.467Z,99878.24
2018-05-15T06:42:58.850Z,99875.77
2018-05-15T06:45:26.226Z,99880.53
2018-05-15T06:47:54.328Z,99877.09
2018-05-15T06:50:21.705Z,99877.47
2018-05-15T06:52:49.818Z,99878.73
2018-05-15T06:55:17.186Z,99877.94
2018-05-15T06:57:46.280Z,99869.91
2018-05-15T07:00:13.658Z,99864.78
2018-05-15T07:02:41.037Z,99876.74
2018-05-15T07:05:08.416Z,99874.83
2018-05-15T07:07:36.006Z,99876.53
2018-05-15T07:10:03.395Z,99878.73
2018-05-15T07:12:30.778Z,99873.80
2018-05-15T07:14:58.181Z,99885.50
2018-05-15T07:17:25.584Z,99882.44
2018-05-15T07:19:52.969Z,99879.17
2018-05-15T07:22:20.346Z,99881.37
2018-05-15T07:24:47.722Z,99886.11
2018-05-15T07:27:15.108Z,99884.05
2018-05-15T07:29:42.495Z,99886.27
2018-05-15T07:32:09.868Z,99882.89
2018-05-15T07:34:37.234Z,99887.20
2018-05-15T07:37:04.614Z,99882.99
2018-05-15T07:39:31.998Z,99886.86
2018-05-15T07:42:00.317Z,99890.90
2018-05-15T07:44:27.700Z,99895.23
2018-05-15T07:46:55.105Z,99899.12
2018-05-15T07:49:22.467Z,99903.41
2018-05-15T07:51:50.168Z,99899.17
2018-05-15T07:54:17.554Z,99897.45
2018-05-15T07:56:44.950Z,99895.30
2018-05-15T07:59:12.315Z,99896.66
2018-05-15T08:01:39.727Z,99898.41
2018-05-15T08:04:07.124Z,99896.30
2018-05-15T08:06:34.507Z,99893.71
2018-05-15T08:09:01.888Z,99892.48
2018-05-15T08:11:29.443Z,99898.09
2018-05-15T08:13:56.824Z,99901.89
2018-05-15T08:16:24.274Z,99903.16
2018-05-15T08:18:51.582Z,99898.95
2018-05-15T08:21:18.961Z,99899.39
2018-05-15T08:23:46.346Z,99904.52
2018-05-15T08:26:13.718Z,99912.27
2018-05-15T08:28:41.106Z,99913.97
2018-05-15T08:31:08.484Z,99911.80
2018-05-15T08:33:35.899Z,99910.59
2018-05-15T08:36:03.287Z,99908.91
2018-05-15T08:38:30.666Z,99910.64
2018-05-15T08:40:58.060Z,99911.94
2018-05-15T08:43:25.440Z,99915.81
2018-05-15T08:45:52.817Z,99909.33
2018-05-15T08:48:20.361Z,99920.13
2018-05-15T08:50:47.779Z,99919.25
2018-05-15T08:53:15.162Z,99914.95
2018-05-15T08:55:42.763Z,99913.64
2018-05-15T08:58:10.281Z,99906.75
2018-05-15T09:00:37.662Z,99907.58
2018-05-15T09:03:05.039Z,99907.16
2018-05-15T09:05:32.489Z,99905.42
2018-05-15T09:07:59.874Z,99905.85
2018-05-15T09:10:27.248Z,99909.26
2018-05-15T09:12:54.631Z,99908.81
2018-05-15T09:15:22.017Z,99911.86
2018-05-15T09:17:50.463Z,99907.54
2018-05-15T09:20:17.942Z,99907.97
2018-05-15T09:22:45.317Z,99899.77
2018-05-15T09:25:12.691Z,99901.95
2018-05-15T09:27:40.080Z,99916.16
2018-05-15T09:30:07.451Z,99910.97
2018-05-15T09:32:34.838Z,99910.08
2018-05-15T09:35:02.220Z,99909.64
2018-05-15T09:37:29.598Z,99910.08
2018-05-15T09:39:57.071Z,99922.63
2018-05-15T09:42:24.446Z,99927.36
2018-05-15T09:44:52.220Z,99920.83
2018-05-15T09:47:20.667Z,99916.00
2018-05-15T09:49:48.079Z,99917.69
2018-05-15T09:52:15.520Z,99915.49
2018-05-15T09:54:42.854Z,99924.10
2018-05-15T09:57:10.239Z,99914.03
2018-05-15T09:59:37.611Z,99923.52
2018-05-15T10:02:04.988Z,99923.15
2018-05-15T10:04:32.378Z,99919.83
2018-05-15T10:06:59.758Z,99920.62
2018-05-15T10:09:27.157Z,99914.06
2018-05-15T10:11:54.528Z,99921.38
2018-05-15T10:14:22.111Z,99917.10
2018-05-15T10:16:49.499Z,99901.15
2018-05-15T10:19:16.955Z,99906.60
2018-05-15T10:21:44.255Z,99907.86
2018-05-15T10:24:12.430Z,99901.75
2018-05-15T10:26:39.820Z,99904.84
2018-05-15T10:29:07.210Z,99897.89
2018-05-15T10:31:34.586Z,99899.48
2018-05-15T10:34:01.968Z,99894.19
2018-05-15T10:36:29.347Z,99899.73
2018-05-15T10:38:56.727Z,99900.02
2018-05-15T10:41:24.164Z,99900.68
2018-05-15T10:43:51.592Z,99901.44
2018-05-15T10:46:18.923Z,99899.68
2018-05-15T10:48:46.519Z,99899.11
2018-05-15T10:51:13.926Z,99896.88
2018-05-15T10:53:41.505Z,99894.70
2018-05-15T10:56:08.971Z,99892.11
2018-05-15T10:58:36.364Z,99893.31
2018-05-15T11:01:03.800Z,99890.73
2018-05-15T11:03:31.226Z,99885.48
2018-05-15T11:05:58.605Z,99888.20
2018-05-15T11:08:25.991Z,99890.98
2018-05-15T11:10:55.249Z,99888.94
2018-05-15T11:13:22.633Z,99880.95
2018-05-15T11:15:50.012Z,99882.00
2018-05-15T11:18:29.158Z,99879.89
2018-05-15T11:21:08.306Z,99868.16
2018-05-15T11:23:47.548Z,99876.08
2018-05-15T11:26:14.947Z,99879.72
2018-05-15T11:28:42.340Z,99878.03
2018-05-15T11:31:09.731Z,99861.92
2018-05-15T11:33:37.375Z,99868.08
2018-05-15T11:36:04.827Z,99869.78
2018-05-15T11:38:32.160Z,99869.52
2018-05-15T11:40:59.553Z,99869.86
2018-05-15T11:43:27.070Z,99864.71
2018-05-15T11:45:54.463Z,99872.06
2018-05-15T11:48:22.332Z,99869.33
2018-05-15T11:50:50.176Z,99871.63
2018-05-15T11:53:17.299Z,99875.62
2018-05-15T11:55:44.009Z,99873.58
2018-05-15T11:58:11.410Z,99874.52
2018-05-15T12:00:38.769Z,99869.91
2018-05-15T12:03:06.148Z,99865.73
2018-05-15T12:05:33.542Z,99864.88
2018-05-15T12:08:01.030Z,99861.42
2018-05-15T12:10:28.364Z,99854.13
2018-05-15T12:12:55.735Z,99848.92
2018-05-15T12:15:23.079Z,99839.19
2018-05-15T12:17:51.538Z,99867.09
2018-05-15T12:20:18.916Z,99866.63
2018-05-15T12:22:46.303Z,99860.78
2018-05-15T12:25:13.697Z,99856.28
2018-05-15T12:27:43.321Z,99852.27
2018-05-15T12:30:08.460Z,99838.55
2018-05-15T12:32:35.877Z,99824.19
2018-05-15T12:35:03.446Z,99825.90
2018-05-15T12:37:30.829Z,99824.34
2018-05-15T12:39:58.249Z,99825.37
2018-05-15T12:42:25.612Z,99832.54
2018-05-15T12:44:53.000Z,99819.92
2018-05-15T12:47:20.371Z,99825.12
2018-05-15T12:49:47.754Z,99817.98
2018-05-15T12:52:15.143Z,99814.39
2018-05-15T12:54:42.534Z,99818.14
2018-05-15T12:57:09.916Z,99820.25
2018-05-15T12:59:37.311Z,99811.93
2018-05-15T13:02:04.704Z,99819.23
2018-05-15T13:04:32.096Z,99820.38
2018-05-15T13:06:59.480Z,99823.93
2018-05-15T13:09:27.168Z,99830.12
2018-05-15T13:11:54.544Z,99821.55
2018-05-15T13:14:25.811Z,99823.38
2018-05-15T13:16:53.182Z,99821.64
2018-05-15T13:19:20.575Z,99816.42
2018-05-15T13:21:47.951Z,99810.63
2018-05-15T13:24:15.343Z,99817.39
2018-05-15T13:26:42.718Z,99814.36
2018-05-15T13:29:10.103Z,99809.83
2018-05-15T13:31:37.479Z,99807.03
2018-05-15T13:34:04.951Z,99809.38
2018-05-15T13:36:32.307Z,99803.31
2018-05-15T13:38:59.703Z,99794.94
2018-05-15T13:41:27.255Z,99786.76
2018-05-15T13:43:54.645Z,99781.72
2018-05-15T13:46:22.029Z,99782.13
2018-05-15T13:48:49.432Z,99781.72
2018-05-15T13:51:16.834Z,99776.52
2018-05-15T13:53:44.248Z,99775.05
2018-05-15T13:56:11.662Z,99766.05
2018-05-15T13:58:39.066Z,99774.50
2018-05-15T14:01:06.450Z,99772.14
2018-05-15T14:03:33.834Z,99775.22
2018-05-15T14:06:01.241Z,99782.31
2018-05-15T14:08:28.604Z,99780.88
2018-05-15T14:10:56.000Z,99775.55
2018-05-15T14:13:23.396Z,99766.70
2018-05-15T14:15:50.792Z,99762.39
2018-05-15T14:18:18.166Z,99766.29
2018-05-15T14:20:45.559Z,99777.23
2018-05-15T14:23:12.948Z,99770.18
2018-05-15T14:25:40.332Z,99762.39
2018-05-15T14:28:07.703Z,99765.88
2018-05-15T14:30:35.092Z,99765.42
2018-05-15T14:33:02.471Z,99770.06
2018-05-15T14:35:29.855Z,99765.84
2018-05-15T14:37:57.233Z,99776.77
2018-05-15T14:40:27.890Z,99776.95
2018-05-15T14:43:07.019Z,99772.13
2018-05-15T14:45:34.376Z,99777.36
2018-05-15T14:48:01.760Z,99773.27
2018-05-15T14:50:29.144Z,99779.02
2018-05-15T14:52:56.532Z,99775.45
2018-05-15T14:55:23.919Z,99777.80
2018-05-15T14:57:53.432Z,99773.30
2018-05-15T15:00:20.815Z,99776.98
2018-05-15T15:02:48.200Z,99770.73
2018-05-15T15:05:15.584Z,99775.80
2018-05-15T15:07:43.002Z,99773.97
2018-05-15T15:10:10.405Z,99766.97
2018-05-15T15:12:37.787Z,99755.17
2018-05-15T15:15:05.426Z,99752.00
2018-05-15T15:17:32.923Z,99770.31
2018-05-15T15:20:00.227Z,99777.29
2018-05-15T15:22:27.629Z,99764.98
2018-05-15T15:24:55.035Z,99771.20
2018-05-15T15:27:22.417Z,99766.92
2018-05-15T15:29:49.815Z,99774.88
2018-05-15T15:32:17.186Z,99769.48
2018-05-15T15:34:44.583Z,99766.59
2018-05-15T15:37:12.410Z,99765.31
2018-05-15T15:39:39.790Z,99757.73
2018-05-15T15:42:07.169Z,99750.98
2018-05-15T15:44:34.578Z,99752.66
2018-05-15T15:47:01.955Z,99751.55
2018-05-15T15:49:29.399Z,99754.25
2018-05-15T15:51:56.839Z,99757.36
2018-05-15T15:54:24.229Z,99759.16
2018-05-15T15:56:52.522Z,99766.63
2018-05-15T15:59:19.923Z,99767.95
2018-05-15T16:01:47.614Z,99770.99
2018-05-15T16:04:15.111Z,99771.70
2018-05-15T16:06:42.522Z,99774.74
2018-05-15T16:09:09.900Z,99783.66
2018-05-15T16:11:37.285Z,99776.00
2018-05-15T16:14:04.662Z,99774.38
2018-05-15T16:16:32.040Z,99770.94
2018-05-15T16:18:59.425Z,99782.42
2018-05-15T16:21:27.148Z,99783.77
2018-05-15T16:23:54.526Z,99786.02
2018-05-15T16:26:24.087Z,99782.42
2018-05-15T16:28:51.458Z,99789.50
2018-05-15T16:31:18.847Z,99788.14
2018-05-15T16:33:46.231Z,99799.30
2018-05-15T16:36:13.659Z,99797.56
2018-05-15T16:38:41.039Z,99787.84
2018-05-15T16:41:08.643Z,99784.72
2018-05-15T16:43:36.425Z,99789.04
2018-05-15T16:46:03.819Z,99793.61
2018-05-15T16:48:31.192Z,99794.39
2018-05-15T16:50:58.591Z,99790.50
2018-05-15T16:53:25.996Z,99801.09
2018-05-15T16:55:53.516Z,99803.16
2018-05-15T16:58:20.982Z,99799.14
2018-05-15T17:00:48.360Z,99797.97
2018-05-15T17:03:15.929Z,99803.23
2018-05-15T17:05:43.340Z,99803.41
2018-05-15T17:08:10.782Z,99807.75
2018-05-15T17:10:38.112Z,99803.31
2018-05-15T17:13:05.487Z,99798.93
2018-05-15T17:15:32.917Z,99798.64
2018-05-15T17:18:00.279Z,99802.48
2018-05-15T17:20:27.669Z,99797.80
2018-05-15T17:22:55.059Z,99800.56
2018-05-15T17:25:22.918Z,99800.31
2018-05-15T17:27:50.299Z,99801.06
2018-05-15T17:30:17.688Z,99803.39
2018-05-15T17:32:45.073Z,99802.02
2018-05-15T17:35:12.446Z,99801.27
2018-05-15T17:37:39.830Z,99799.18
2018-05-15T17:40:07.218Z,99795.27
2018-05-15T17:42:34.594Z,99793.33
2018-05-15T17:45:02.073Z,99803.19
2018-05-15T17:47:29.515Z,99799.44
2018-05-15T17:49:57.046Z,99802.31
2018-05-15T17:52:24.475Z,99804.81
2018-05-15T17:54:51.851Z,99801.38
2018-05-15T17:57:19.494Z,99804.05
2018-05-15T17:59:46.921Z,99808.97
2018-05-15T18:02:14.263Z,99846.08
2018-05-15T18:04:41.652Z,99854.00
2018-05-15T18:07:09.039Z,99861.60
2018-05-15T18:09:36.415Z,99856.61
2018-05-15T18:12:03.801Z,99867.45
2018-05-15T18:14:31.219Z,99888.27
2018-05-15T18:16:58.616Z,99921.03
2018-05-15T18:19:26.031Z,99917.08
2018-05-15T18:21:53.431Z,99921.10
2018-05-15T18:24:20.815Z,99935.23
2018-05-15T18:26:48.200Z,99930.52
2018-05-15T18:29:15.615Z,99932.96
2018-05-15T18:31:42.989Z,99934.41
2018-05-15T18:34:10.361Z,99937.48
2018-05-15T18:36:37.759Z,99933.95
2018-05-15T18:39:05.963Z,99941.14
2018-05-15T18:41:33.302Z,99943.73
2018-05-15T18:44:00.674Z,99944.25
2018-05-15T18:46:28.063Z,99945.47
2018-05-15T18:48:55.442Z,99956.08
2018-05-15T18:51:23.287Z,99958.96
2018-05-15T18:53:50.675Z,99971.80
2018-05-15T18:56:18.062Z,99960.39
2018-05-15T18:58:45.446Z,99961.59
2018-05-15T19:01:12.835Z,99965.61
2018-05-15T19:03:40.216Z,99966.69
2018-05-15T19:06:07.619Z,99978.72
2018-05-15T19:08:34.995Z,99977.87
2018-05-15T19:11:02.388Z,99957.77
2018-05-15T19:13:29.762Z,99937.66
2018-05-15T19:15:57.175Z,99961.98
2018-05-15T19:18:24.539Z,99957.19
2018-05-15T19:20:51.943Z,99942.56
2018-05-15T19:23:19.326Z,99934.80
2018-05-15T19:25:46.711Z,99925.31
2018-05-15T19:28:14.083Z,99919.27
2018-05-15T19:30:41.472Z,99923.12
2018-05-15T19:33:08.938Z,99920.09
2018-05-15T19:35:41.064Z,99921.42
2018-05-15T19:38:08.440Z,99910.20
2018-05-15T19:40:41.765Z,99910.64
2018-05-15T19:43:09.145Z,99915.81
2018-05-15T19:45:36.523Z,99916.05
2018-05-15T19:48:03.911Z,99923.56
2018-05-15T19:50:31.300Z,99925.22
2018-05-15T19:52:58.688Z,99921.83
2018-05-15T19:55:26.063Z,99912.77
2018-05-15T19:57:53.675Z,99915.67
2018-05-15T20:00:21.054Z,99903.28
2018-05-15T20:02:48.442Z,99898.98
2018-05-15T20:05:15.813Z,99897.69
2018-05-15T20:07:43.223Z,99890.35
2018-05-15T20:10:10.599Z,99892.07
2018-05-15T20:12:37.984Z,99891.66
2018-05-15T20:15:05.356Z,99891.66
2018-05-15T20:17:32.813Z,99887.75
2018-05-15T20:20:00.226Z,99892.52
2018-05-15T20:22:27.602Z,99886.03
2018-05-15T20:24:55.208Z,99880.42
2018-05-15T20:27:22.596Z,99879.59
2018-05-15T20:29:50.046Z,99883.47
2018-05-15T20:32:17.429Z,99885.09
2018-05-15T20:34:44.897Z,99888.63
2018-05-15T20:37:12.197Z,99882.61
2018-05-15T20:39:39.723Z,99875.27
2018-05-15T20:42:07.188Z,99881.74
2018-05-15T20:44:34.562Z,99892.49
2018-05-15T20:47:01.944Z,99894.23
2018-05-15T20:49:29.318Z,99895.95
2018-05-15T20:51:56.708Z,99910.09
2018-05-15T20:54:24.090Z,99918.26
2018-05-15T20:56:51.577Z,99936.74
2018-05-15T20:59:19.230Z,99969.47
2018-05-15T21:01:46.619Z,99987.05
2018-05-15T21:04:14.129Z,99988.73
2018-05-15T21:06:41.560Z,99986.92
2018-05-15T21:09:09.023Z,99981.30
2018-05-15T21:11:36.407Z,99975.78
2018-05-15T21:14:03.846Z,99969.64
2018-05-15T21:16:31.252Z,99943.89
2018-05-15T21:18:58.639Z,99949.65
2018-05-15T21:21:26.023Z,99933.89
2018-05-15T21:23:53.996Z,99925.08
2018-05-15T21:26:21.567Z,99913.91
2018-05-15T21:28:48.952Z,99916.52
2018-05-15T21:31:16.340Z,99914.83
2018-05-15T21:33:43.727Z,99912.36
2018-05-15T21:36:11.101Z,99908.61
2018-05-15T21:38:38.491Z,99906.52
2018-05-15T21:41:05.863Z,99913.14
2018-05-15T21:43:33.250Z,99920.64
2018-05-15T21:46:00.653Z,99925.00
2018-05-15T21:48:28.061Z,99933.72
2018-05-15T21:50:55.452Z,99939.86
2018-05-15T21:53:22.840Z,99942.13
2018-05-15T21:55:50.457Z,99942.20
2018-05-15T21:58:17.849Z,99947.60
2018-05-15T22:00:45.471Z,99950.55
2018-05-15T22:03:13.104Z,99949.05
2018-05-15T22:05:40.484Z,99949.13
2018-05-15T22:08:07.880Z,99951.47
2018-05-15T22:10:35.457Z,99944.62
2018-05-15T22:13:14.625Z,99945.80
2018-05-15T22:15:53.901Z,99953.16
2018-05-15T22:18:33.196Z,99959.89
2018-05-15T22:21:12.254Z,99966.02
2018-05-15T22:23:39.132Z,99981.82
2018-05-15T22:26:06.516Z,99994.31
2018-05-15T22:28:33.908Z,99993.08
2018-05-15T22:31:01.285Z,99989.00
2018-05-15T22:33:28.659Z,99986.05
2018-05-15T22:35:56.046Z,99988.02
2018-05-15T22:38:24.484Z,99983.97
2018-05-15T22:40:51.848Z,99981.62
2018-05-15T22:43:19.451Z,99978.80
2018-05-15T22:45:46.815Z,99979.47
2018-05-15T22:48:14.199Z,99980.16
2018-05-15T22:50:41.575Z,99974.23
2018-05-15T22:53:08.956Z,99956.86
2018-05-15T22:55:36.341Z,99948.64
2018-05-15T22:58:03.754Z,99938.58
2018-05-15T23:00:31.508Z,99933.39
2018-05-15T23:02:58.964Z,99932.30
2018-05-15T23:05:26.368Z,99932.48
2018-05-15T23:07:54.455Z,99927.22
2018-05-15T23:10:21.850Z,99928.12
2018-05-15T23:12:49.236Z,99932.27
2018-05-15T23:15:16.624Z,99936.20
2018-05-15T23:17:44.011Z,99926.42
2018-05-15T23:20:11.394Z,99936.14
2018-05-15T23:22:43.684Z,99962.48
2018-05-15T23:25:11.066Z,99967.12
2018-05-15T23:27:38.506Z,99953.04
2018-05-15T23:30:05.903Z,99950.12
2018-05-15T23:32:33.295Z,99945.55
2018-05-15T23:35:00.685Z,99938.79
2018-05-15T23:37:28.076Z,99939.81
2018-05-15T23:39:55.457Z,99935.89
2018-05-15T23:42:23.119Z,99930.27
2018-05-15T23:44:50.933Z,99942.71
2018-05-15T23:47:18.578Z,99946.14
2018-05-15T23:49:47.983Z,99945.14
2018-05-15T23:52:15.450Z,99948.80
2018-05-15T23:54:42.816Z,99956.77
2018-05-15T23:57:10.328Z,99950.94
2018-05-15T23:59:37.838Z,99957.68
